createdAt,value
2019-03-08T00:03:59.987Z,95917.45
2019-03-08T00:06:28.820Z,95921.52
2019-03-08T00:08:57.486Z,95917.17
2019-03-08T00:11:26.174Z,95912.80
2019-03-08T00:13:54.801Z,95913.58
2019-03-08T00:16:42.664Z,95912.83
2019-03-08T00:22:18.331Z,95924.38
2019-03-08T00:24:47.084Z,95925.38
2019-03-08T00:27:15.720Z,95931.25
2019-03-08T00:30:03.764Z,95931.50
2019-03-08T00:32:51.567Z,95943.80
2019-03-08T00:35:20.224Z,95951.47
2019-03-08T00:37:48.970Z,95951.72
2019-03-08T00:40:18.161Z,95956.56
2019-03-08T00:42:46.957Z,95949.91
2019-03-08T00:45:55.425Z,95960.66
2019-03-08T00:49:03.882Z,95968.09
2019-03-08T00:51:32.578Z,95974.02
2019-03-08T00:54:01.370Z,95977.84
2019-03-08T00:56:30.182Z,95976.31
2019-03-08T00:58:58.763Z,95985.78
2019-03-08T01:01:46.597Z,95980.94
2019-03-08T01:04:15.226Z,95982.47
2019-03-08T01:06:44.054Z,95981.45
2019-03-08T01:09:12.694Z,95977.87
2019-03-08T01:11:41.382Z,95978.34
2019-03-08T01:14:10.043Z,95982.72
2019-03-08T01:16:57.974Z,95978.38
2019-03-08T01:19:26.664Z,95973.78
2019-03-08T01:21:55.462Z,95977.59
2019-03-08T01:24:24.156Z,95977.34
2019-03-08T01:26:52.786Z,95985.53
2019-03-08T01:29:21.469Z,95984.52
2019-03-08T01:31:50.110Z,95983.73
2019-03-08T01:34:18.800Z,95982.72
2019-03-08T01:36:47.423Z,95981.72
2019-03-08T01:39:16.091Z,95976.84
2019-03-08T01:41:44.728Z,95982.98
2019-03-08T01:44:33.929Z,95986.58
2019-03-08T01:47:03.068Z,95982.23
2019-03-08T01:49:31.770Z,95973.02
2019-03-08T01:52:00.427Z,95977.86
2019-03-08T01:54:29.120Z,95973.77
2019-03-08T01:56:57.691Z,95983.00
2019-03-08T01:59:45.638Z,95975.30
2019-03-08T02:02:14.287Z,95982.99
2019-03-08T02:04:42.960Z,95976.59
2019-03-08T02:07:11.706Z,95982.99
2019-03-08T02:09:40.339Z,95992.20
2019-03-08T02:12:09.192Z,95991.17
2019-03-08T02:14:37.762Z,95979.42
2019-03-08T02:17:06.449Z,95994.02
2019-03-08T02:19:35.036Z,95991.19
2019-03-08T02:22:03.683Z,95995.55
2019-03-08T02:24:32.364Z,95995.77
2019-03-08T02:27:02.846Z,95994.77
2019-03-08T02:29:50.726Z,96002.20
2019-03-08T02:32:19.282Z,96005.53
2019-03-08T02:34:47.967Z,96004.23
2019-03-08T02:37:16.795Z,95997.08
2019-03-08T02:39:45.419Z,96013.70
2019-03-08T02:42:13.978Z,96017.55
2019-03-08T02:45:01.896Z,96013.44
2019-03-08T02:47:30.868Z,96008.59
2019-03-08T02:49:59.514Z,96015.76
2019-03-08T02:52:28.204Z,96019.84
2019-03-08T02:54:56.791Z,96012.92
2019-03-08T02:57:25.520Z,96004.99
2019-03-08T03:00:13.361Z,96013.45
2019-03-08T03:02:42.089Z,96022.91
2019-03-08T03:05:10.735Z,96016.75
2019-03-08T03:07:39.412Z,96012.66
2019-03-08T03:10:47.882Z,96017.01
2019-03-08T03:13:16.519Z,96011.62
2019-03-08T03:15:45.215Z,96022.12
2019-03-08T03:18:53.639Z,96022.86
2019-03-08T03:21:22.289Z,96031.81
2019-03-08T03:24:10.130Z,96037.67
2019-03-08T03:26:38.827Z,96025.15
2019-03-08T03:29:26.590Z,96033.55
2019-03-08T03:31:55.363Z,96036.63
2019-03-08T03:34:24.069Z,96037.91
2019-03-08T03:37:11.907Z,96032.78
2019-03-08T03:39:59.729Z,96033.28
2019-03-08T03:42:28.350Z,96043.27
2019-03-08T03:44:57.031Z,96045.05
2019-03-08T03:47:25.711Z,96043.50
2019-03-08T03:49:54.357Z,96052.47
2019-03-08T03:52:23.009Z,96053.20
2019-03-08T03:54:51.690Z,96048.10
2019-03-08T03:57:39.649Z,96052.96
2019-03-08T04:00:48.027Z,96057.07
2019-03-08T04:03:35.753Z,96066.80
2019-03-08T04:06:04.422Z,96066.80
2019-03-08T04:08:33.040Z,96081.13
2019-03-08T04:11:01.754Z,96080.09
2019-03-08T04:13:30.315Z,96085.45
2019-03-08T04:15:58.980Z,96080.12
2019-03-08T04:18:27.654Z,96081.39
2019-03-08T04:20:56.345Z,96099.55
2019-03-08T04:23:44.180Z,96102.12
2019-03-08T04:26:12.853Z,96106.73
2019-03-08T04:28:41.547Z,96119.73
2019-03-08T04:31:10.196Z,96114.37
2019-03-08T04:33:38.872Z,96108.45
2019-03-08T04:36:07.511Z,96120.20
2019-03-08T04:38:36.180Z,96128.84
2019-03-08T04:41:04.870Z,96130.32
2019-03-08T04:44:13.313Z,96131.34
2019-03-08T04:46:42.016Z,96136.72
2019-03-08T04:49:10.731Z,96135.66
2019-03-08T04:51:39.412Z,96136.89
2019-03-08T04:54:08.000Z,96134.29
2019-03-08T04:56:36.768Z,96141.48
2019-03-08T04:59:05.547Z,96143.02
2019-03-08T05:01:34.169Z,96142.95
2019-03-08T05:04:22.079Z,96151.08
2019-03-08T05:06:50.768Z,96152.15
2019-03-08T05:09:19.372Z,96157.78
2019-03-08T05:11:48.006Z,96167.27
2019-03-08T05:14:16.693Z,96173.39
2019-03-08T05:16:45.345Z,96179.10
2019-03-08T05:19:33.218Z,96189.87
2019-03-08T05:22:01.793Z,96187.77
2019-03-08T05:24:30.484Z,96196.25
2019-03-08T05:26:59.132Z,96196.52
2019-03-08T05:29:47.101Z,96209.73
2019-03-08T05:32:15.774Z,96216.93
2019-03-08T05:34:44.378Z,96198.92
2019-03-08T05:37:13.762Z,96198.09
2019-03-08T05:39:43.712Z,96207.05
2019-03-08T05:42:12.374Z,96210.50
2019-03-08T05:44:41.180Z,96214.02
2019-03-08T05:47:09.739Z,96204.56
2019-03-08T05:49:38.363Z,96207.38
2019-03-08T05:52:07.002Z,96209.66
2019-03-08T05:54:54.727Z,96210.11
2019-03-08T05:57:44.039Z,96212.34
2019-03-08T06:03:07.559Z,96224.12
2019-03-08T06:06:16.018Z,96231.90
2019-03-08T06:08:46.429Z,96228.52
2019-03-08T06:11:15.116Z,96236.02
2019-03-08T06:14:02.930Z,96239.80
2019-03-08T06:16:31.561Z,96231.66
2019-03-08T06:24:50.801Z,96256.03
2019-03-08T06:27:19.489Z,96264.80
2019-03-08T06:29:48.128Z,96272.22
2019-03-08T06:32:17.147Z,96273.28
2019-03-08T06:34:45.752Z,96271.01
2019-03-08T06:37:14.449Z,96279.01
2019-03-08T06:39:43.347Z,96271.42
2019-03-08T06:42:12.048Z,96285.69
2019-03-08T06:44:40.698Z,96290.89
2019-03-08T06:47:09.302Z,96292.11
2019-03-08T06:49:37.980Z,96300.98
2019-03-08T06:52:06.672Z,96306.30
2019-03-08T06:54:37.060Z,96312.19
2019-03-08T06:57:05.701Z,96305.91
2019-03-08T07:02:23.778Z,96324.52
2019-03-08T07:04:52.440Z,96330.13
2019-03-08T07:07:21.109Z,96335.50
2019-03-08T07:09:49.791Z,96345.37
2019-03-08T07:12:18.491Z,96352.09
2019-03-08T07:14:47.118Z,96355.37
2019-03-08T07:17:15.788Z,96355.10
2019-03-08T07:23:11.984Z,96361.89
2019-03-08T07:25:59.788Z,96364.84
2019-03-08T07:28:47.470Z,96370.70
2019-03-08T07:31:35.273Z,96372.84
2019-03-08T07:37:02.556Z,96376.64
2019-03-08T07:45:14.889Z,96391.82
2019-03-08T07:48:02.708Z,96399.17
2019-03-08T07:50:50.867Z,96398.47
2019-03-08T07:56:27.871Z,96414.66
2019-03-08T08:02:04.814Z,96425.46
2019-03-08T08:04:52.591Z,96422.77
2019-03-08T08:12:54.939Z,96438.99
2019-03-08T08:15:42.731Z,96444.66
2019-03-08T08:18:30.543Z,96455.09
2019-03-08T08:21:18.245Z,96451.62
2019-03-08T08:29:17.116Z,96467.14
2019-03-08T08:32:04.800Z,96471.79
2019-03-08T08:34:52.599Z,96468.76
2019-03-08T08:37:40.365Z,96482.23
2019-03-08T08:40:48.819Z,96476.55
2019-03-08T08:46:25.924Z,96487.82
2019-03-08T08:52:02.865Z,96493.36
2019-03-08T08:54:50.630Z,96501.63
2019-03-08T08:57:38.443Z,96486.31
2019-03-08T09:00:45.498Z,96491.32
2019-03-08T09:08:44.553Z,96510.23
2019-03-08T09:14:21.573Z,96493.56
2019-03-08T09:17:09.408Z,96494.22
2019-03-08T09:22:46.355Z,96499.95
2019-03-08T09:28:13.147Z,96517.88
2019-03-08T09:31:00.955Z,96499.44
2019-03-08T09:33:49.040Z,96507.23
2019-03-08T10:00:07.722Z,96517.54
2019-03-08T10:02:55.484Z,96522.22
2019-03-08T10:05:43.299Z,96530.19
2019-03-08T10:08:31.049Z,96527.34
2019-03-08T10:16:30.437Z,96547.77
2019-03-08T10:19:18.140Z,96549.57
2019-03-08T10:22:05.881Z,96543.95
2019-03-08T10:27:42.898Z,96558.10
2019-03-08T10:30:51.349Z,96569.27
2019-03-08T10:36:28.259Z,96568.05
2019-03-08T10:50:17.637Z,96574.58
2019-03-08T10:58:30.146Z,96580.38
2019-03-08T11:01:17.911Z,96578.98
2019-03-08T11:06:44.978Z,96578.22
2019-03-08T11:12:27.425Z,96579.27
2019-03-08T11:15:23.960Z,96580.80
2019-03-08T11:20:53.885Z,96583.36
2019-03-08T11:29:06.292Z,96590.23
2019-03-08T11:31:54.101Z,96599.75
2019-03-08T11:34:41.884Z,96593.91
2019-03-08T11:37:29.717Z,96600.31
2019-03-08T11:40:17.446Z,96609.03
2019-03-08T11:43:05.188Z,96614.95
2019-03-08T11:45:53.028Z,96621.86
2019-03-08T11:51:16.267Z,96617.72
2019-03-08T11:56:55.654Z,96626.14
2019-03-08T11:59:36.610Z,96622.79
2019-03-08T12:02:24.509Z,96633.63
2019-03-08T12:05:12.276Z,96617.47
2019-03-08T12:08:00.083Z,96625.13
2019-03-08T12:10:47.915Z,96632.84
2019-03-08T12:13:35.686Z,96625.37
2019-03-08T12:16:23.487Z,96626.45
2019-03-08T12:19:11.252Z,96622.70
2019-03-08T12:25:01.255Z,96625.77
2019-03-08T12:27:49.330Z,96634.23
2019-03-08T12:30:37.145Z,96616.48
2019-03-08T12:33:24.909Z,96617.23
2019-03-08T12:36:12.646Z,96624.45
2019-03-08T12:41:49.680Z,96624.72
2019-03-08T12:47:26.724Z,96628.05
2019-03-08T12:50:14.482Z,96627.80
2019-03-08T12:53:02.335Z,96633.73
2019-03-08T12:55:50.050Z,96635.77
2019-03-08T13:03:55.598Z,96629.88
2019-03-08T13:06:43.402Z,96639.92
2019-03-08T13:09:51.826Z,96630.70
2019-03-08T13:12:20.559Z,96625.02
2019-03-08T13:14:49.188Z,96630.92
2019-03-08T13:17:38.884Z,96640.16
2019-03-08T13:20:26.802Z,96631.42
2019-03-08T13:22:55.478Z,96637.59
2019-03-08T13:25:24.089Z,96642.94
2019-03-08T13:27:52.798Z,96648.36
2019-03-08T13:31:01.264Z,96647.83
2019-03-08T13:33:29.913Z,96645.29
2019-03-08T13:35:58.603Z,96648.39
2019-03-08T13:38:27.234Z,96648.63
2019-03-08T13:40:55.899Z,96652.73
2019-03-08T13:43:24.544Z,96647.06
2019-03-08T13:45:53.437Z,96655.77
2019-03-08T13:48:22.082Z,96658.33
2019-03-08T13:50:50.821Z,96655.74
2019-03-08T13:53:19.465Z,96661.14
2019-03-08T13:55:48.180Z,96659.31
2019-03-08T13:58:16.884Z,96665.14
2019-03-08T14:00:47.357Z,96671.58
2019-03-08T14:03:35.072Z,96672.10
2019-03-08T14:06:03.707Z,96675.73
2019-03-08T14:08:32.473Z,96677.25
2019-03-08T14:11:01.391Z,96706.21
2019-03-08T14:14:09.430Z,96684.91
2019-03-08T14:16:38.269Z,96678.25
2019-03-08T14:19:42.129Z,96686.53
2019-03-08T14:22:40.311Z,96688.31
2019-03-08T14:25:09.003Z,96687.03
2019-03-08T14:27:37.667Z,96686.33
2019-03-08T14:30:46.162Z,96687.41
2019-03-08T14:33:14.813Z,96691.30
2019-03-08T14:36:02.951Z,96702.36
2019-03-08T14:38:52.096Z,96701.61
2019-03-08T14:41:39.938Z,96707.64
2019-03-08T14:47:03.364Z,96710.80
2019-03-08T14:49:51.191Z,96721.30
2019-03-08T14:54:55.462Z,96716.89
2019-03-08T14:57:27.225Z,96723.71
2019-03-08T14:59:54.563Z,96733.77
2019-03-08T15:02:25.048Z,96730.60
2019-03-08T15:04:53.842Z,96744.11
2019-03-08T15:07:22.493Z,96735.09
2019-03-08T15:09:51.255Z,96742.33
2019-03-08T15:12:48.382Z,96743.80
2019-03-08T15:15:49.439Z,96750.73
2019-03-08T15:18:18.119Z,96751.09
2019-03-08T15:20:46.778Z,96751.25
2019-03-08T15:23:17.175Z,96748.70
2019-03-08T15:25:49.102Z,96745.08
2019-03-08T15:28:16.419Z,96747.19
2019-03-08T15:31:06.038Z,96748.99
2019-03-08T15:33:53.893Z,96748.50
2019-03-08T15:36:24.390Z,96737.74
2019-03-08T15:38:58.566Z,96731.02
2019-03-08T15:41:25.023Z,96725.23
2019-03-08T15:43:54.019Z,96725.13
2019-03-08T15:49:31.660Z,96722.34
2019-03-08T15:52:03.669Z,96728.84
2019-03-08T15:54:31.684Z,96731.08
2019-03-08T15:57:00.298Z,96732.76
2019-03-08T15:59:29.058Z,96738.39
2019-03-08T16:01:57.816Z,96740.14
2019-03-08T16:04:26.749Z,96742.22
2019-03-08T16:06:55.483Z,96751.20
2019-03-08T16:09:24.185Z,96738.93
2019-03-08T16:11:52.890Z,96741.81
2019-03-08T16:14:21.649Z,96741.78
2019-03-08T16:16:50.458Z,96741.55
2019-03-08T16:19:20.929Z,96732.41
2019-03-08T16:21:50.586Z,96735.99
2019-03-08T16:24:20.090Z,96730.48
2019-03-08T16:26:48.758Z,96729.72
2019-03-08T16:29:36.620Z,96731.97
2019-03-08T16:32:24.318Z,96728.44
2019-03-08T16:34:52.747Z,96726.21
2019-03-08T16:40:29.441Z,96728.30
2019-03-08T16:43:17.165Z,96735.45
2019-03-08T16:46:04.795Z,96733.54
2019-03-08T16:48:54.101Z,96735.79
2019-03-08T16:51:41.549Z,96738.47
2019-03-08T16:54:29.192Z,96737.86
2019-03-08T16:57:24.350Z,96741.66
2019-03-08T17:00:12.340Z,96749.81
2019-03-08T17:03:00.399Z,96749.59
2019-03-08T17:05:48.279Z,96762.66
2019-03-08T17:13:47.349Z,96772.52
2019-03-08T17:16:35.161Z,96781.11
2019-03-08T17:19:42.292Z,96783.28
2019-03-08T17:28:26.291Z,96792.27
2019-03-08T17:31:14.137Z,96794.83
2019-03-08T17:34:01.948Z,96791.78
2019-03-08T17:36:50.226Z,96800.64
2019-03-08T17:39:58.987Z,96796.91
2019-03-08T17:43:08.003Z,96791.86
2019-03-08T17:45:56.577Z,96791.28
2019-03-08T17:49:04.164Z,96798.97
2019-03-08T17:51:52.376Z,96809.38
2019-03-08T17:54:40.232Z,96812.64
2019-03-08T17:57:49.780Z,96815.43
2019-03-08T18:01:00.049Z,96817.34
2019-03-08T18:04:07.912Z,96833.59
2019-03-08T18:10:04.980Z,96843.95
2019-03-08T18:13:14.076Z,96836.47
2019-03-08T18:16:23.281Z,96833.41
2019-03-08T18:19:32.794Z,96837.28
2019-03-08T18:22:41.489Z,96843.55
2019-03-08T18:25:31.424Z,96840.65
2019-03-08T18:31:28.557Z,96849.02
2019-03-08T18:34:37.453Z,96851.56
2019-03-08T18:37:25.280Z,96839.11
2019-03-08T18:40:15.388Z,96843.05
2019-03-08T18:43:03.229Z,96845.37
2019-03-08T18:46:10.423Z,96854.73
2019-03-08T18:48:56.047Z,96857.17
2019-03-08T18:51:43.944Z,96865.27
2019-03-08T18:54:31.738Z,96867.52
2019-03-08T18:59:54.890Z,96857.56
2019-03-08T19:02:34.894Z,96859.00
2019-03-08T19:05:23.670Z,96867.83
2019-03-08T19:13:23.142Z,96882.54
2019-03-08T19:19:00.243Z,96882.29
2019-03-08T19:22:07.514Z,96886.50
2019-03-08T19:25:16.461Z,96892.94
2019-03-08T19:28:04.429Z,96885.30
2019-03-08T19:33:46.924Z,96888.56
2019-03-08T19:36:54.156Z,96885.33
2019-03-08T19:39:43.485Z,96881.84
2019-03-08T19:45:47.466Z,96880.30
2019-03-08T19:48:35.412Z,96881.94
2019-03-08T19:59:46.576Z,96887.19
2019-03-08T20:02:41.831Z,96886.50
2019-03-08T20:05:44.886Z,96885.13
2019-03-08T20:12:00.604Z,96886.23
2019-03-08T20:14:48.572Z,96883.61
2019-03-08T20:17:56.009Z,96889.98
2019-03-08T20:21:03.381Z,96886.16
2019-03-08T20:23:51.520Z,96890.81
2019-03-08T20:26:58.835Z,96887.39
2019-03-08T20:35:44.827Z,96897.94
2019-03-08T20:38:33.312Z,96902.25
2019-03-08T20:41:40.802Z,96897.42
2019-03-08T20:44:47.988Z,96893.05
2019-03-08T20:49:56.949Z,96899.87
2019-03-08T20:55:30.325Z,96891.67
2019-03-08T21:04:01.604Z,96902.28
2019-03-08T21:06:30.493Z,96901.36
2019-03-08T21:09:18.753Z,96904.25
2019-03-08T21:11:47.738Z,96906.59
2019-03-08T21:14:35.992Z,96899.11
2019-03-08T21:19:52.407Z,96892.86
2019-03-08T21:22:21.199Z,96897.05
2019-03-08T21:24:50.023Z,96897.55
2019-03-08T21:27:19.157Z,96889.75
2019-03-08T21:40:20.885Z,96891.28
2019-03-08T21:42:49.698Z,96896.78
2019-03-08T21:45:18.581Z,96899.87
2019-03-08T21:48:06.784Z,96889.79
2019-03-08T21:50:35.485Z,96889.12
2019-03-08T21:53:44.472Z,96890.19
2019-03-08T21:59:00.896Z,96899.64
2019-03-08T22:04:36.469Z,96886.35
2019-03-08T22:07:24.994Z,96889.45
2019-03-08T22:10:13.096Z,96887.42
2019-03-08T22:12:41.888Z,96883.34
2019-03-08T22:18:07.394Z,96885.95
2019-03-08T22:20:36.328Z,96883.80
2019-03-08T22:25:39.923Z,96869.28
2019-03-08T22:28:27.960Z,96864.66
2019-03-08T22:31:36.684Z,96860.29
2019-03-08T22:34:05.370Z,96862.38
2019-03-08T22:36:53.449Z,96852.48
2019-03-08T22:39:41.351Z,96852.55
2019-03-08T22:42:29.380Z,96853.82
2019-03-08T22:45:17.179Z,96841.88
2019-03-08T22:53:15.402Z,96845.89
2019-03-08T22:55:44.239Z,96845.89
2019-03-08T22:58:13.004Z,96850.48
2019-03-08T23:01:21.448Z,96851.19
2019-03-08T23:03:50.217Z,96846.98
2019-03-08T23:06:37.978Z,96845.09
2019-03-08T23:09:46.466Z,96840.94
2019-03-08T23:12:15.261Z,96843.77
2019-03-08T23:14:44.117Z,96837.73
2019-03-08T23:17:12.789Z,96827.59
2019-03-08T23:20:00.692Z,96819.54
2019-03-08T23:22:29.352Z,96816.25
2019-03-08T23:24:57.992Z,96812.61
2019-03-08T23:30:49.541Z,96801.84
2019-03-08T23:33:18.295Z,96801.98
2019-03-08T23:38:21.452Z,96794.77
2019-03-08T23:41:09.427Z,96792.61
2019-03-08T23:43:39.724Z,96790.94
2019-03-08T23:46:27.633Z,96789.72
2019-03-08T23:54:25.009Z,96791.50
